createdAt,value
2023-01-05T00:01:43.635Z,9.80
2023-01-05T00:04:11.250Z,9.70
2023-01-05T00:06:39.675Z,9.80
2023-01-05T00:09:17.544Z,9.80
2023-01-05T00:12:03.416Z,9.70
2023-01-05T00:14:52.473Z,9.80
2023-01-05T00:17:42.159Z,9.70
2023-01-05T00:20:37.997Z,9.80
2023-01-05T00:23:05.947Z,9.80
2023-01-05T00:25:38.189Z,9.70
2023-01-05T00:28:05.841Z,9.70
2023-01-05T00:30:40.000Z,9.70
2023-01-05T00:33:12.488Z,9.80
2023-01-05T00:35:40.285Z,9.80
2023-01-05T00:38:08.647Z,9.80
2023-01-05T00:40:36.179Z,9.80
2023-01-05T00:43:03.904Z,9.80
2023-01-05T00:45:31.103Z,9.70
2023-01-05T00:47:58.327Z,9.70
2023-01-05T00:50:25.635Z,9.70
2023-01-05T00:52:52.711Z,9.60
2023-01-05T00:55:19.928Z,9.50
2023-01-05T00:57:47.173Z,9.40
2023-01-05T01:00:19.068Z,9.30
2023-01-05T01:02:46.376Z,9.30
2023-01-05T01:05:14.184Z,9.30
2023-01-05T01:07:41.497Z,9.30
2023-01-05T01:10:10.283Z,9.20
2023-01-05T01:12:37.587Z,9.20
2023-01-05T01:15:05.869Z,9.10
2023-01-05T01:17:33.462Z,9.10
2023-01-05T01:20:00.767Z,9.10
2023-01-05T01:22:28.058Z,9.00
2023-01-05T01:24:55.257Z,9.00
2023-01-05T01:27:22.358Z,8.90
2023-01-05T01:29:49.685Z,8.80
2023-01-05T01:32:16.816Z,8.80
2023-01-05T01:34:45.074Z,8.70
2023-01-05T01:37:13.193Z,8.70
2023-01-05T01:39:45.732Z,8.70
2023-01-05T01:42:16.663Z,8.70
2023-01-05T01:44:57.576Z,8.70
2023-01-05T01:47:47.264Z,8.60
2023-01-05T01:50:27.998Z,8.70
2023-01-05T01:53:02.781Z,8.70
2023-01-05T01:55:31.619Z,8.70
2023-01-05T01:57:59.984Z,8.70
2023-01-05T02:00:27.215Z,8.80
2023-01-05T02:02:55.908Z,8.80
2023-01-05T02:05:31.682Z,8.80
2023-01-05T02:07:58.988Z,8.80
2023-01-05T02:11:00.669Z,8.80
2023-01-05T02:13:44.056Z,8.80
2023-01-05T02:16:40.439Z,8.80
2023-01-05T02:19:35.358Z,8.80
2023-01-05T02:22:55.515Z,8.80
2023-01-05T02:26:33.396Z,8.80
2023-01-05T02:29:36.729Z,8.70
2023-01-05T02:32:22.567Z,8.70
2023-01-05T02:35:18.371Z,8.70
2023-01-05T02:38:05.616Z,8.70
2023-01-05T02:40:41.157Z,8.70
2023-01-05T02:43:13.205Z,8.70
2023-01-05T02:45:40.539Z,8.70
2023-01-05T02:48:07.751Z,8.70
2023-01-05T02:50:43.576Z,8.70
2023-01-05T02:53:25.711Z,8.80
2023-01-05T02:56:18.095Z,8.70
2023-01-05T02:59:03.394Z,8.60
2023-01-05T03:01:47.968Z,8.70
2023-01-05T03:04:27.612Z,8.60
2023-01-05T03:07:01.577Z,8.50
2023-01-05T03:09:36.801Z,8.50
2023-01-05T03:12:41.236Z,8.50
2023-01-05T03:15:28.913Z,8.50
2023-01-05T03:18:00.130Z,8.50
2023-01-05T03:20:31.537Z,8.50
2023-01-05T03:23:21.057Z,8.50
2023-01-05T03:26:08.254Z,8.50
2023-01-05T03:29:10.169Z,8.50
2023-01-05T03:31:59.672Z,8.50
2023-01-05T03:35:06.628Z,8.60
2023-01-05T03:37:43.875Z,8.60
2023-01-05T03:40:21.913Z,8.60
2023-01-05T03:42:52.568Z,8.60
2023-01-05T03:45:21.124Z,8.60
2023-01-05T03:47:50.288Z,8.60
2023-01-05T03:50:22.700Z,8.60
2023-01-05T03:52:49.832Z,8.50
2023-01-05T03:55:17.313Z,8.50
2023-01-05T03:57:44.851Z,8.60
2023-01-05T04:00:14.673Z,8.50
2023-01-05T04:02:55.495Z,8.50
2023-01-05T04:05:23.270Z,8.50
2023-01-05T04:07:51.245Z,8.50
2023-01-05T04:10:18.460Z,8.50
2023-01-05T04:12:48.169Z,8.50
2023-01-05T04:15:16.811Z,8.50
2023-01-05T04:17:43.977Z,8.50
2023-01-05T04:20:13.036Z,8.60
2023-01-05T04:22:40.936Z,8.60
2023-01-05T04:25:09.632Z,8.60
2023-01-05T04:27:37.364Z,8.60
2023-01-05T04:30:07.248Z,8.60
2023-01-05T04:32:34.713Z,8.60
2023-01-05T04:35:08.840Z,8.60
2023-01-05T04:37:40.097Z,8.60
2023-01-05T04:40:09.073Z,8.60
2023-01-05T04:42:44.317Z,8.60
2023-01-05T04:45:11.963Z,8.60
2023-01-05T04:47:39.245Z,8.60
2023-01-05T04:50:07.725Z,8.60
2023-01-05T04:52:34.990Z,8.60
2023-01-05T04:55:03.770Z,8.60
2023-01-05T04:57:31.226Z,8.50
2023-01-05T04:59:58.904Z,8.60
2023-01-05T05:02:26.091Z,8.50
2023-01-05T05:04:54.560Z,8.50
2023-01-05T05:07:23.286Z,8.50
2023-01-05T05:09:51.372Z,8.50
2023-01-05T05:12:21.833Z,8.60
2023-01-05T05:14:51.907Z,8.60
2023-01-05T05:17:19.065Z,8.60
2023-01-05T05:19:46.242Z,8.60
2023-01-05T05:22:14.272Z,8.60
2023-01-05T05:24:42.123Z,8.60
2023-01-05T05:27:09.916Z,8.60
2023-01-05T05:29:37.039Z,8.60
2023-01-05T05:32:04.524Z,8.60
2023-01-05T05:34:31.828Z,8.60
2023-01-05T05:36:59.154Z,8.60
2023-01-05T05:39:26.199Z,8.60
2023-01-05T05:41:53.371Z,8.60
2023-01-05T05:44:20.454Z,8.60
2023-01-05T05:46:47.599Z,8.60
2023-01-05T05:49:14.833Z,8.60
2023-01-05T05:51:42.004Z,8.50
2023-01-05T05:54:09.106Z,8.50
2023-01-05T05:56:36.207Z,8.50
2023-01-05T05:59:03.524Z,8.60
2023-01-05T06:01:30.844Z,8.50
2023-01-05T06:03:58.153Z,8.50
2023-01-05T06:06:25.252Z,8.60
2023-01-05T06:08:52.634Z,8.60
2023-01-05T06:11:20.650Z,8.60
2023-01-05T06:13:48.886Z,8.60
2023-01-05T06:16:16.287Z,8.60
2023-01-05T06:18:43.437Z,8.60
2023-01-05T06:21:10.569Z,8.60
2023-01-05T06:23:37.825Z,8.60
2023-01-05T06:26:05.214Z,8.60
2023-01-05T06:28:32.423Z,8.60
2023-01-05T06:30:59.943Z,8.60
2023-01-05T06:33:27.134Z,8.60
2023-01-05T06:35:54.291Z,8.60
2023-01-05T06:38:21.660Z,8.60
2023-01-05T06:40:49.737Z,8.50
2023-01-05T06:43:16.959Z,8.40
2023-01-05T06:45:44.793Z,8.40
2023-01-05T06:48:13.371Z,8.40
2023-01-05T06:50:40.496Z,8.50
2023-01-05T06:53:07.947Z,8.50
2023-01-05T06:55:35.225Z,8.40
2023-01-05T06:58:02.317Z,8.40
2023-01-05T07:00:29.594Z,8.40
2023-01-05T07:02:56.720Z,8.40
2023-01-05T07:05:24.553Z,8.30
2023-01-05T07:07:52.074Z,8.20
2023-01-05T07:10:19.349Z,8.20
2023-01-05T07:12:46.535Z,8.10
2023-01-05T07:15:13.829Z,7.80
2023-01-05T07:17:41.330Z,7.80
2023-01-05T07:20:09.281Z,7.80
2023-01-05T07:22:36.397Z,7.80
2023-01-05T07:25:03.931Z,9.40
2023-01-05T07:27:31.813Z,7.90
2023-01-05T07:29:59.069Z,7.90
2023-01-05T07:32:26.306Z,8.00
2023-01-05T07:34:55.751Z,8.00
2023-01-05T07:37:25.198Z,8.10
2023-01-05T07:39:53.096Z,8.10
2023-01-05T07:42:20.284Z,8.20
2023-01-05T07:44:48.931Z,8.30
2023-01-05T07:47:16.211Z,8.30
2023-01-05T07:49:43.574Z,8.40
2023-01-05T07:52:10.841Z,8.40
2023-01-05T07:54:37.971Z,8.40
2023-01-05T07:57:05.083Z,8.50
2023-01-05T07:59:32.297Z,8.50
2023-01-05T08:01:59.600Z,8.40
2023-01-05T08:04:27.031Z,8.20
2023-01-05T08:06:54.351Z,8.10
2023-01-05T08:09:40.171Z,8.00
2023-01-05T08:12:07.640Z,7.80
2023-01-05T08:14:34.887Z,7.60
2023-01-05T08:17:02.100Z,7.50
2023-01-05T08:19:29.252Z,7.50
2023-01-05T08:21:56.443Z,7.50
2023-01-05T08:24:23.705Z,7.50
2023-01-05T08:26:51.606Z,7.50
2023-01-05T08:29:18.854Z,7.50
2023-01-05T08:31:46.100Z,7.60
2023-01-05T08:34:13.820Z,7.60
2023-01-05T08:36:41.430Z,7.50
2023-01-05T08:39:10.998Z,7.40
2023-01-05T08:41:40.323Z,7.40
2023-01-05T08:44:12.859Z,7.20
2023-01-05T08:46:40.251Z,7.20
2023-01-05T08:49:09.777Z,7.10
2023-01-05T08:51:38.058Z,7.10
2023-01-05T08:54:05.439Z,7.10
2023-01-05T08:56:38.374Z,7.10
2023-01-05T08:59:06.869Z,7.00
2023-01-05T09:01:34.084Z,7.00
2023-01-05T09:04:01.752Z,7.40
2023-01-05T09:06:29.502Z,6.90
2023-01-05T09:08:56.793Z,6.80
2023-01-05T09:11:26.148Z,6.70
2023-01-05T09:14:00.146Z,6.60
2023-01-05T09:19:18.354Z,6.30
2023-01-05T09:21:46.721Z,6.20
2023-01-05T09:24:14.082Z,6.10
2023-01-05T09:26:42.410Z,6.00
2023-01-05T09:29:11.299Z,5.90
2023-01-05T09:31:40.475Z,5.80
2023-01-05T09:34:07.784Z,5.80
2023-01-05T09:36:35.034Z,5.80
2023-01-05T09:39:02.487Z,5.70
2023-01-05T09:41:53.173Z,5.80
2023-01-05T09:44:37.894Z,5.80
2023-01-05T09:47:39.796Z,5.80
2023-01-05T09:50:17.878Z,5.90
2023-01-05T09:52:45.500Z,6.00
2023-01-05T09:55:19.048Z,5.90
2023-01-05T09:58:02.860Z,5.90
2023-01-05T10:00:30.508Z,5.80
2023-01-05T10:03:29.258Z,5.80
2023-01-05T10:06:00.100Z,5.80
2023-01-05T10:08:41.658Z,5.80
2023-01-05T10:11:42.420Z,5.90
2023-01-05T10:14:16.641Z,5.90
2023-01-05T10:16:45.809Z,5.90
2023-01-05T10:19:17.252Z,5.80
2023-01-05T10:22:19.669Z,5.90
2023-01-05T10:25:04.938Z,5.80
2023-01-05T10:27:42.202Z,5.90
2023-01-05T10:30:35.067Z,5.90
2023-01-05T10:33:39.142Z,5.90
2023-01-05T10:39:56.601Z,5.90
2023-01-05T10:42:45.557Z,5.90
2023-01-05T10:45:20.781Z,5.90
2023-01-05T10:47:50.099Z,5.90
2023-01-05T10:50:41.956Z,6.00
2023-01-05T10:53:18.107Z,6.00
2023-01-05T10:55:56.966Z,6.00
2023-01-05T10:58:33.290Z,6.00
2023-01-05T11:01:06.294Z,5.90
2023-01-05T11:04:23.972Z,5.90
2023-01-05T11:06:33.895Z,5.80
2023-01-05T11:09:22.899Z,5.80
2023-01-05T11:12:03.041Z,5.80
2023-01-05T11:14:41.180Z,5.80
2023-01-05T11:17:19.850Z,5.80
2023-01-05T11:19:52.042Z,5.80
2023-01-05T11:22:38.691Z,5.80
2023-01-05T11:25:29.414Z,5.80
2023-01-05T11:28:06.180Z,5.80
2023-01-05T11:30:33.874Z,5.80
2023-01-05T11:33:01.909Z,5.80
2023-01-05T11:35:35.141Z,5.90
2023-01-05T11:38:02.559Z,5.90
2023-01-05T11:40:34.590Z,5.80
2023-01-05T11:43:12.254Z,5.90
2023-01-05T11:45:52.054Z,5.80
2023-01-05T11:48:29.449Z,5.80
2023-01-05T11:50:58.501Z,5.90
2023-01-05T11:53:35.244Z,5.80
2023-01-05T11:56:13.777Z,5.80
2023-01-05T11:58:49.952Z,5.80
2023-01-05T12:01:51.654Z,5.80
2023-01-05T12:04:56.027Z,5.80
2023-01-05T12:07:35.260Z,5.80
2023-01-05T12:10:55.515Z,5.80
2023-01-05T12:13:34.092Z,5.80
2023-01-05T12:16:19.374Z,5.80
2023-01-05T12:19:15.045Z,5.70
2023-01-05T12:22:34.149Z,5.60
2023-01-05T12:25:23.323Z,5.60
2023-01-05T12:28:40.553Z,5.50
2023-01-05T12:34:33.411Z,5.60
2023-01-05T12:37:22.762Z,5.70
2023-01-05T12:40:22.446Z,5.60
2023-01-05T12:43:07.150Z,5.70
2023-01-05T12:46:12.264Z,5.70
2023-01-05T12:48:56.035Z,5.70
2023-01-05T12:51:36.953Z,5.70
2023-01-05T12:54:46.106Z,5.70
2023-01-05T12:57:34.602Z,5.70
2023-01-05T13:00:19.278Z,5.70
2023-01-05T13:03:10.446Z,5.60
2023-01-05T13:06:10.478Z,5.60
2023-01-05T13:09:05.061Z,5.60
2023-01-05T13:11:38.665Z,5.60
2023-01-05T13:14:19.945Z,5.60
2023-01-05T13:17:07.647Z,5.60
2023-01-05T13:19:55.623Z,5.50
2023-01-05T13:22:26.947Z,5.60
2023-01-05T13:25:14.676Z,5.60
2023-01-05T13:27:43.150Z,5.60
2023-01-05T13:30:31.744Z,5.60
2023-01-05T13:33:42.251Z,5.50
2023-01-05T13:36:50.861Z,5.50
2023-01-05T13:39:45.880Z,5.50
2023-01-05T13:42:25.534Z,5.50
2023-01-05T13:45:02.410Z,5.50
2023-01-05T13:48:25.331Z,5.50
2023-01-05T13:51:29.066Z,5.50
2023-01-05T13:53:59.005Z,5.60
2023-01-05T13:56:30.486Z,5.60
2023-01-05T13:59:07.169Z,5.60
2023-01-05T14:01:45.231Z,5.70
2023-01-05T14:04:58.630Z,5.60
2023-01-05T14:07:40.351Z,5.60
2023-01-05T14:10:24.826Z,5.50
2023-01-05T14:12:55.904Z,5.50
2023-01-05T14:15:39.716Z,5.50
2023-01-05T14:18:49.652Z,5.50
2023-01-05T14:21:49.223Z,5.50
2023-01-05T14:27:18.706Z,5.50
2023-01-05T14:29:48.918Z,5.50
2023-01-05T14:32:33.065Z,5.60
2023-01-05T14:35:24.007Z,5.50
2023-01-05T14:38:06.368Z,5.50
2023-01-05T14:40:37.738Z,5.50
2023-01-05T14:43:31.161Z,5.50
2023-01-05T14:46:00.637Z,5.50
2023-01-05T14:48:42.196Z,5.50
2023-01-05T14:51:29.998Z,5.50
2023-01-05T14:54:03.584Z,5.50
2023-01-05T14:56:37.899Z,5.50
2023-01-05T14:59:20.807Z,5.50
2023-01-05T15:02:04.492Z,5.50
2023-01-05T15:04:36.704Z,5.50
2023-01-05T15:07:33.345Z,5.50
2023-01-05T15:10:18.901Z,5.50
2023-01-05T15:13:05.396Z,5.50
2023-01-05T15:15:57.061Z,5.50
2023-01-05T15:19:15.450Z,5.50
2023-01-05T15:22:39.411Z,5.50
2023-01-05T15:25:21.004Z,5.50
2023-01-05T15:28:18.796Z,5.50
2023-01-05T15:31:32.109Z,5.50
2023-01-05T15:34:25.232Z,5.50
2023-01-05T15:37:10.421Z,5.50
2023-01-05T15:39:45.704Z,5.50
2023-01-05T15:42:37.557Z,5.50
2023-01-05T15:45:09.670Z,5.50
2023-01-05T15:47:40.161Z,5.50
2023-01-05T15:50:21.301Z,5.50
2023-01-05T15:52:58.615Z,5.50
2023-01-05T15:55:28.978Z,5.50
2023-01-05T15:58:04.028Z,5.50
2023-01-05T16:00:35.947Z,5.50
2023-01-05T16:03:27.883Z,5.60
2023-01-05T16:06:02.961Z,5.50
2023-01-05T16:08:35.155Z,5.00
2023-01-05T16:11:09.721Z,5.50
2023-01-05T16:13:52.050Z,5.50
2023-01-05T16:16:51.940Z,5.50
2023-01-05T16:19:32.562Z,5.50
2023-01-05T16:22:12.426Z,5.60
2023-01-05T16:25:00.642Z,5.60
2023-01-05T16:27:29.051Z,5.60
2023-01-05T16:30:28.240Z,5.60
2023-01-05T16:33:05.943Z,5.60
2023-01-05T16:35:43.528Z,5.60
2023-01-05T16:38:10.975Z,5.60
2023-01-05T16:40:50.431Z,5.60
2023-01-05T16:43:22.476Z,5.60
2023-01-05T16:45:51.629Z,5.60
2023-01-05T16:48:42.451Z,5.60
2023-01-05T16:51:20.008Z,5.60
2023-01-05T16:53:57.192Z,5.50
2023-01-05T16:56:33.992Z,5.60
2023-01-05T16:59:52.871Z,5.60
2023-01-05T17:02:49.013Z,5.60
2023-01-05T17:05:24.072Z,5.60
2023-01-05T17:07:59.305Z,5.60
2023-01-05T17:10:27.581Z,5.60
2023-01-05T17:13:08.422Z,5.60
2023-01-05T17:15:36.921Z,5.60
2023-01-05T17:18:28.997Z,5.60
2023-01-05T17:20:59.169Z,5.50
2023-01-05T17:23:36.578Z,5.50
2023-01-05T17:26:08.787Z,5.50
2023-01-05T17:28:36.177Z,5.50
2023-01-05T17:31:03.645Z,5.50
2023-01-05T17:33:31.181Z,5.50
2023-01-05T17:35:58.904Z,5.40
2023-01-05T17:38:26.411Z,5.30
2023-01-05T17:40:54.081Z,5.50
2023-01-05T17:43:21.550Z,5.40
2023-01-05T17:45:49.027Z,5.50
2023-01-05T17:48:16.953Z,5.40
2023-01-05T17:50:45.343Z,5.40
2023-01-05T17:53:12.889Z,5.40
2023-01-05T17:55:42.060Z,5.40
2023-01-05T17:58:12.481Z,5.40
2023-01-05T18:01:25.493Z,5.40
2023-01-05T18:04:51.214Z,5.40
2023-01-05T18:07:32.162Z,5.50
2023-01-05T18:10:00.401Z,5.40
2023-01-05T18:12:28.430Z,5.50
2023-01-05T18:14:56.251Z,5.50
2023-01-05T18:17:24.357Z,5.50
2023-01-05T18:19:52.838Z,5.50
2023-01-05T18:22:20.241Z,5.50
2023-01-05T18:24:47.772Z,5.50
2023-01-05T18:27:15.594Z,5.50
2023-01-05T18:29:43.130Z,5.50
2023-01-05T18:32:11.759Z,5.40
2023-01-05T18:34:39.374Z,5.40
2023-01-05T18:37:20.365Z,5.40
2023-01-05T18:39:48.320Z,5.40
2023-01-05T18:42:16.109Z,5.40
2023-01-05T18:44:43.487Z,5.40
2023-01-05T18:47:10.968Z,5.40
2023-01-05T18:49:38.331Z,5.40
2023-01-05T18:52:05.904Z,5.40
2023-01-05T18:54:33.356Z,5.40
2023-01-05T18:57:00.865Z,5.40
2023-01-05T18:59:28.342Z,5.40
2023-01-05T19:01:55.799Z,5.40
2023-01-05T19:04:23.523Z,5.40
2023-01-05T19:06:51.057Z,5.40
2023-01-05T19:09:18.545Z,5.40
2023-01-05T19:11:47.780Z,5.40
2023-01-05T19:14:16.668Z,5.40
2023-01-05T19:16:44.192Z,5.40
2023-01-05T19:19:15.097Z,5.40
2023-01-05T19:21:45.226Z,5.40
2023-01-05T19:24:22.580Z,5.40
2023-01-05T19:26:50.669Z,5.40
2023-01-05T19:29:19.847Z,5.40
2023-01-05T19:31:50.321Z,5.40
2023-01-05T19:34:19.727Z,5.40
2023-01-05T19:36:47.961Z,5.40
2023-01-05T19:39:19.061Z,5.50
2023-01-05T19:41:48.951Z,5.50
2023-01-05T19:44:19.770Z,5.50
2023-01-05T19:46:54.249Z,5.50
2023-01-05T19:49:25.383Z,5.50
2023-01-05T19:51:53.786Z,5.50
2023-01-05T19:54:22.651Z,5.50
2023-01-05T19:56:51.377Z,5.50
2023-01-05T19:59:26.343Z,5.50
2023-01-05T20:01:56.211Z,5.50
2023-01-05T20:04:26.360Z,5.60
2023-01-05T20:06:54.011Z,5.40
2023-01-05T20:09:22.436Z,5.60
2023-01-05T20:11:59.542Z,5.50
2023-01-05T20:14:32.466Z,5.50
2023-01-05T20:17:09.149Z,5.40
2023-01-05T20:19:38.777Z,5.30
2023-01-05T20:22:14.046Z,5.20
2023-01-05T20:24:42.996Z,5.20
2023-01-05T20:27:16.886Z,5.20
2023-01-05T20:29:44.957Z,5.10
2023-01-05T20:32:17.666Z,5.00
2023-01-05T20:34:52.134Z,5.00
2023-01-05T20:37:21.038Z,4.90
2023-01-05T20:39:48.876Z,4.90
2023-01-05T20:42:16.615Z,4.80
2023-01-05T20:44:46.572Z,4.80
2023-01-05T20:47:15.399Z,4.80
2023-01-05T20:49:46.494Z,4.70
2023-01-05T20:52:17.588Z,5.60
2023-01-05T20:54:49.507Z,4.60
2023-01-05T20:57:17.124Z,4.60
2023-01-05T20:59:44.572Z,4.60
2023-01-05T21:02:23.671Z,4.60
2023-01-05T21:04:53.157Z,4.60
2023-01-05T21:07:21.928Z,4.60
2023-01-05T21:09:51.479Z,4.60
2023-01-05T21:12:19.954Z,4.60
2023-01-05T21:14:48.276Z,4.50
2023-01-05T21:17:17.302Z,4.50
2023-01-05T21:19:45.650Z,4.40
2023-01-05T21:22:13.725Z,4.30
2023-01-05T21:24:44.086Z,4.20
2023-01-05T21:27:11.910Z,4.10
2023-01-05T21:29:40.533Z,4.10
2023-01-05T21:32:08.753Z,4.00
2023-01-05T21:34:37.038Z,3.90
2023-01-05T21:37:04.803Z,3.80
2023-01-05T21:39:33.385Z,3.80
2023-01-05T21:42:19.987Z,3.80
2023-01-05T21:44:48.583Z,3.80
2023-01-05T21:47:17.364Z,3.80
2023-01-05T21:49:45.780Z,3.70
2023-01-05T21:52:32.263Z,3.70
2023-01-05T21:55:22.452Z,3.70
2023-01-05T21:57:50.289Z,3.70
2023-01-05T22:00:20.466Z,3.70
2023-01-05T22:02:48.105Z,3.70
2023-01-05T22:05:16.808Z,3.60
2023-01-05T22:07:44.776Z,3.50
2023-01-05T22:10:13.755Z,3.50
2023-01-05T22:12:43.031Z,3.50
2023-01-05T22:15:11.571Z,3.50
2023-01-05T22:17:39.659Z,3.40
2023-01-05T22:20:08.321Z,3.40
2023-01-05T22:22:36.178Z,3.40
2023-01-05T22:25:05.439Z,3.40
2023-01-05T22:27:32.718Z,3.40
2023-01-05T22:30:00.210Z,3.30
2023-01-05T22:32:27.694Z,3.20
2023-01-05T22:34:58.333Z,3.20
2023-01-05T22:37:25.938Z,3.10
2023-01-05T22:39:53.820Z,3.00
2023-01-05T22:42:21.366Z,3.00
2023-01-05T22:44:49.100Z,3.10
2023-01-05T22:47:16.774Z,3.10
2023-01-05T22:49:44.144Z,3.10
2023-01-05T22:52:11.451Z,3.00
2023-01-05T22:54:40.199Z,3.00
2023-01-05T22:57:08.399Z,3.00
2023-01-05T22:59:35.850Z,2.90
2023-01-05T23:02:03.236Z,2.90
2023-01-05T23:04:31.049Z,2.90
2023-01-05T23:06:58.585Z,3.00
2023-01-05T23:09:25.988Z,3.00
2023-01-05T23:11:53.308Z,2.90
2023-01-05T23:14:21.731Z,2.90
2023-01-05T23:16:51.587Z,2.90
2023-01-05T23:19:19.229Z,2.80
2023-01-05T23:21:46.783Z,2.90
2023-01-05T23:24:14.307Z,2.80
2023-01-05T23:26:42.222Z,2.80
2023-01-05T23:29:09.976Z,2.70
2023-01-05T23:31:37.428Z,2.70
2023-01-05T23:34:05.519Z,2.70
2023-01-05T23:36:32.897Z,2.80
2023-01-05T23:39:00.269Z,2.80
2023-01-05T23:41:27.561Z,2.80
2023-01-05T23:43:55.404Z,2.80
2023-01-05T23:46:23.739Z,2.80
2023-01-05T23:48:52.113Z,2.90
2023-01-05T23:51:19.923Z,2.90
2023-01-05T23:53:52.959Z,2.90
2023-01-05T23:56:23.755Z,2.90
2023-01-05T23:59:07.094Z,3.00
